createdAt,value
2023-03-29T00:02:19.951Z,5.00
2023-03-29T00:04:47.235Z,5.27
2023-03-29T00:07:14.412Z,4.67
2023-03-29T00:09:42.573Z,5.73
2023-03-29T00:12:11.239Z,14.23
2023-03-29T00:14:38.432Z,6.70
2023-03-29T00:17:05.628Z,6.77
2023-03-29T00:19:36.780Z,8.73
2023-03-29T00:22:06.314Z,5.20
2023-03-29T00:24:33.502Z,7.13
2023-03-29T00:27:01.176Z,7.57
2023-03-29T00:29:28.514Z,11.17
2023-03-29T00:31:56.155Z,7.10
2023-03-29T00:34:24.641Z,7.73
2023-03-29T00:36:53.081Z,6.33
2023-03-29T00:39:21.247Z,4.87
2023-03-29T00:41:51.625Z,6.27
2023-03-29T00:44:56.419Z,9.20
2023-03-29T00:47:45.618Z,7.37
2023-03-29T00:50:22.516Z,8.10
2023-03-29T00:53:09.853Z,6.23
2023-03-29T00:55:49.928Z,7.13
2023-03-29T00:58:27.398Z,7.63
2023-03-29T01:01:02.449Z,6.40
2023-03-29T01:03:38.124Z,6.47
2023-03-29T01:06:08.776Z,6.70
2023-03-29T01:08:41.966Z,5.33
2023-03-29T01:11:32.731Z,4.97
2023-03-29T01:14:03.819Z,9.73
2023-03-29T01:16:33.577Z,8.87
2023-03-29T01:19:02.408Z,7.80
2023-03-29T01:22:03.954Z,5.53
2023-03-29T01:25:05.454Z,5.93
2023-03-29T01:27:53.414Z,4.83
2023-03-29T01:30:43.955Z,6.00
2023-03-29T01:33:21.302Z,6.20
2023-03-29T01:35:57.725Z,4.90
2023-03-29T01:38:34.017Z,4.80
2023-03-29T01:41:03.671Z,4.83
2023-03-29T01:43:42.306Z,4.43
2023-03-29T01:46:25.274Z,8.07
2023-03-29T01:49:20.745Z,5.23
2023-03-29T01:52:15.442Z,4.83
2023-03-29T01:54:50.391Z,6.67
2023-03-29T01:57:23.074Z,4.57
2023-03-29T01:59:53.361Z,7.20
2023-03-29T02:02:21.752Z,4.93
2023-03-29T02:04:52.427Z,6.03
2023-03-29T02:07:23.635Z,4.27
2023-03-29T02:09:52.721Z,10.67
2023-03-29T02:12:20.867Z,7.97
2023-03-29T02:14:47.980Z,4.60
2023-03-29T02:17:26.578Z,11.30
2023-03-29T02:20:14.045Z,4.93
2023-03-29T02:23:04.696Z,5.43
2023-03-29T02:25:32.705Z,11.43
2023-03-29T02:28:01.014Z,6.90
2023-03-29T02:31:11.489Z,7.53
2023-03-29T02:33:52.229Z,8.30
2023-03-29T02:36:34.200Z,6.13
2023-03-29T02:39:05.867Z,6.00
2023-03-29T02:41:34.371Z,6.17
2023-03-29T02:44:04.344Z,4.63
2023-03-29T02:46:32.033Z,4.60
2023-03-29T02:49:00.054Z,8.73
2023-03-29T02:51:32.606Z,5.67
2023-03-29T02:54:17.911Z,7.40
2023-03-29T02:56:50.715Z,4.83
2023-03-29T02:59:25.172Z,5.53
2023-03-29T03:01:52.921Z,10.37
2023-03-29T03:04:23.429Z,4.80
2023-03-29T03:06:50.728Z,5.77
2023-03-29T03:09:18.553Z,6.00
2023-03-29T03:11:47.523Z,8.93
2023-03-29T03:14:14.780Z,6.37
2023-03-29T03:16:42.172Z,7.03
2023-03-29T03:19:10.552Z,4.87
2023-03-29T03:21:38.408Z,7.17
2023-03-29T03:24:07.708Z,7.17
2023-03-29T03:26:36.076Z,4.53
2023-03-29T03:29:05.498Z,8.80
2023-03-29T03:32:01.084Z,7.40
2023-03-29T03:34:57.471Z,5.20
2023-03-29T03:37:27.660Z,5.00
2023-03-29T03:39:55.172Z,4.47
2023-03-29T03:42:23.619Z,5.37
2023-03-29T03:44:50.849Z,7.43
2023-03-29T03:47:41.185Z,6.90
2023-03-29T03:50:27.553Z,4.37
2023-03-29T03:52:55.615Z,5.73
2023-03-29T03:55:22.816Z,5.53
2023-03-29T03:58:05.663Z,6.60
2023-03-29T04:00:33.459Z,5.17
2023-03-29T04:03:24.287Z,7.80
2023-03-29T04:05:51.575Z,6.97
2023-03-29T04:08:23.140Z,4.70
2023-03-29T04:11:09.340Z,4.63
2023-03-29T04:13:38.626Z,6.40
2023-03-29T04:16:27.555Z,6.93
2023-03-29T04:18:56.692Z,5.10
2023-03-29T04:21:24.873Z,8.13
2023-03-29T04:23:53.207Z,9.30
2023-03-29T04:26:20.348Z,7.10
2023-03-29T04:28:50.612Z,8.50
2023-03-29T04:31:27.988Z,5.27
2023-03-29T04:34:15.389Z,6.20
2023-03-29T04:36:43.746Z,7.10
2023-03-29T04:39:20.613Z,7.10
2023-03-29T04:41:53.624Z,6.47
2023-03-29T04:44:24.782Z,6.00
2023-03-29T04:46:52.400Z,5.03
2023-03-29T04:49:38.144Z,5.43
2023-03-29T04:52:10.519Z,8.03
2023-03-29T04:54:38.504Z,6.47
2023-03-29T04:57:19.212Z,7.67
2023-03-29T04:59:55.847Z,5.27
2023-03-29T05:02:46.271Z,4.83
2023-03-29T05:05:15.300Z,3.83
2023-03-29T05:07:44.404Z,9.60
2023-03-29T05:10:14.985Z,8.63
2023-03-29T05:12:42.984Z,6.70
2023-03-29T05:15:10.813Z,4.30
2023-03-29T05:17:38.143Z,5.43
2023-03-29T05:20:11.167Z,9.57
2023-03-29T05:22:40.381Z,4.80
2023-03-29T05:25:11.830Z,6.63
2023-03-29T05:27:42.600Z,7.73
2023-03-29T05:30:12.066Z,6.00
2023-03-29T05:32:58.256Z,6.63
2023-03-29T05:35:26.971Z,11.83
2023-03-29T05:37:56.412Z,9.17
2023-03-29T05:40:26.309Z,6.53
2023-03-29T05:43:12.240Z,6.73
2023-03-29T05:45:39.555Z,4.93
2023-03-29T05:48:06.946Z,7.20
2023-03-29T05:50:36.889Z,6.33
2023-03-29T05:53:05.157Z,10.17
2023-03-29T05:55:33.382Z,6.17
2023-03-29T05:58:01.169Z,5.70
2023-03-29T06:00:34.507Z,5.67
2023-03-29T06:03:21.317Z,4.20
2023-03-29T06:05:59.373Z,7.43
2023-03-29T06:08:27.781Z,10.70
2023-03-29T06:11:06.091Z,7.27
2023-03-29T06:13:52.959Z,6.03
2023-03-29T06:16:20.373Z,4.30
2023-03-29T06:18:48.014Z,6.67
2023-03-29T06:21:15.470Z,3.57
2023-03-29T06:23:43.033Z,10.30
2023-03-29T06:26:10.765Z,6.00
2023-03-29T06:28:39.142Z,4.83
2023-03-29T06:31:06.891Z,5.63
2023-03-29T06:33:38.864Z,6.43
2023-03-29T06:36:28.985Z,5.23
2023-03-29T06:38:56.264Z,4.43
2023-03-29T06:41:38.481Z,5.97
2023-03-29T06:44:14.413Z,4.67
2023-03-29T06:46:57.971Z,6.30
2023-03-29T06:49:26.287Z,5.87
2023-03-29T06:52:12.301Z,3.87
2023-03-29T06:54:40.787Z,4.63
2023-03-29T06:57:08.491Z,6.53
2023-03-29T06:59:36.036Z,6.43
2023-03-29T07:02:22.857Z,8.60
2023-03-29T07:05:02.101Z,9.33
2023-03-29T07:07:53.488Z,4.90
2023-03-29T07:10:44.129Z,5.63
2023-03-29T07:13:44.991Z,5.57
2023-03-29T07:16:18.204Z,7.70
2023-03-29T07:18:57.568Z,12.30
2023-03-29T07:21:44.957Z,6.53
2023-03-29T07:24:13.017Z,9.30
2023-03-29T07:26:46.323Z,5.10
2023-03-29T07:29:19.970Z,5.77
2023-03-29T07:31:47.185Z,5.67
2023-03-29T07:34:33.557Z,4.73
2023-03-29T07:37:01.003Z,10.40
2023-03-29T07:39:28.246Z,8.47
2023-03-29T07:42:18.655Z,4.23
2023-03-29T07:44:46.011Z,6.57
2023-03-29T07:47:13.447Z,9.47
2023-03-29T07:49:40.790Z,7.63
2023-03-29T07:52:08.254Z,4.10
2023-03-29T07:54:35.486Z,7.10
2023-03-29T07:57:18.892Z,6.07
2023-03-29T07:59:51.902Z,6.07
2023-03-29T08:02:22.886Z,7.93
2023-03-29T08:04:53.973Z,4.57
2023-03-29T08:07:56.272Z,5.10
2023-03-29T08:10:49.554Z,7.63
2023-03-29T08:13:52.334Z,5.70
2023-03-29T08:16:38.393Z,4.83
2023-03-29T08:19:10.609Z,7.53
2023-03-29T08:21:54.031Z,4.80
2023-03-29T08:24:24.240Z,3.87
2023-03-29T08:26:56.572Z,5.03
2023-03-29T08:29:25.226Z,7.93
2023-03-29T08:31:52.854Z,3.60
2023-03-29T08:34:20.068Z,7.13
2023-03-29T08:37:02.134Z,6.13
2023-03-29T08:39:40.904Z,6.47
2023-03-29T08:43:33.663Z,4.47
2023-03-29T08:46:45.270Z,3.67
2023-03-29T08:49:31.945Z,7.33
2023-03-29T08:52:05.359Z,4.60
2023-03-29T08:54:42.460Z,5.03
2023-03-29T08:57:33.482Z,11.30
2023-03-29T09:00:21.885Z,5.17
2023-03-29T09:02:52.011Z,4.90
2023-03-29T09:05:43.611Z,6.50
2023-03-29T09:08:21.402Z,4.97
2023-03-29T09:11:31.361Z,7.27
2023-03-29T09:14:33.694Z,4.63
2023-03-29T09:17:29.695Z,3.30
2023-03-29T09:20:57.182Z,5.73
2023-03-29T09:27:13.939Z,7.77
2023-03-29T09:36:24.361Z,4.87
2023-03-29T09:38:54.655Z,11.07
2023-03-29T09:41:34.557Z,6.70
2023-03-29T09:44:30.838Z,6.77
2023-03-29T09:47:34.210Z,8.50
2023-03-29T09:50:31.061Z,7.97
2023-03-29T09:53:01.760Z,4.77
2023-03-29T09:55:37.184Z,3.63
2023-03-29T09:58:27.598Z,6.90
2023-03-29T10:00:59.677Z,5.00
2023-03-29T10:03:31.893Z,6.73
2023-03-29T10:06:12.768Z,4.23
2023-03-29T10:09:09.538Z,10.20
2023-03-29T10:11:48.038Z,4.03
2023-03-29T10:14:37.171Z,8.00
2023-03-29T10:17:34.223Z,6.47
2023-03-29T10:20:08.207Z,7.23
2023-03-29T10:22:40.489Z,5.20
2023-03-29T10:25:15.180Z,3.83
2023-03-29T10:27:45.086Z,7.53
2023-03-29T10:30:35.060Z,8.03
2023-03-29T10:33:03.301Z,5.30
2023-03-29T10:35:41.985Z,4.17
2023-03-29T10:38:15.020Z,3.50
2023-03-29T10:40:48.244Z,5.87
2023-03-29T10:43:27.093Z,3.73
2023-03-29T10:45:56.523Z,5.80
2023-03-29T10:48:31.311Z,4.23
2023-03-29T10:51:01.444Z,4.00
2023-03-29T10:53:32.662Z,4.43
2023-03-29T10:56:28.927Z,4.67
2023-03-29T10:59:33.036Z,5.20
2023-03-29T11:02:54.159Z,4.03
2023-03-29T11:05:48.703Z,4.80
2023-03-29T11:08:35.387Z,3.33
2023-03-29T11:11:35.072Z,8.23
2023-03-29T11:14:20.613Z,5.77
2023-03-29T11:17:30.701Z,7.57
2023-03-29T11:20:45.881Z,4.00
2023-03-29T11:24:01.820Z,6.27
2023-03-29T11:27:04.158Z,2.50
2023-03-29T11:44:58.908Z,3.70
2023-03-29T11:47:37.391Z,6.67
2023-03-29T11:50:25.772Z,4.27
2023-03-29T11:53:07.253Z,3.33
2023-03-29T11:55:38.765Z,6.90
2023-03-29T11:58:31.540Z,6.03
2023-03-29T12:01:04.445Z,3.37
2023-03-29T12:04:02.592Z,2.73
2023-03-29T12:06:50.830Z,3.73
2023-03-29T12:09:50.516Z,6.73
2023-03-29T12:13:00.239Z,6.43
2023-03-29T12:15:32.701Z,6.30
2023-03-29T12:18:55.790Z,9.10
2023-03-29T12:21:25.113Z,3.60
2023-03-29T12:23:53.374Z,2.50
2023-03-29T12:27:05.510Z,10.20
2023-03-29T12:29:57.593Z,7.17
2023-03-29T12:33:15.771Z,3.53
2023-03-29T12:37:00.890Z,3.20
2023-03-29T12:43:41.346Z,10.07
2023-03-29T12:46:35.520Z,5.30
2023-03-29T12:49:24.393Z,7.47
2023-03-29T12:51:53.122Z,6.10
2023-03-29T12:54:23.427Z,6.67
2023-03-29T12:56:58.568Z,6.77
2023-03-29T12:59:39.582Z,6.93
2023-03-29T13:02:37.211Z,5.80
2023-03-29T13:05:25.061Z,6.63
2023-03-29T13:07:52.784Z,7.03
2023-03-29T13:10:40.001Z,6.17
2023-03-29T13:13:33.344Z,8.50
2023-03-29T13:16:16.323Z,3.60
2023-03-29T13:19:38.778Z,9.43
2023-03-29T13:22:34.292Z,15.27
2023-03-29T13:25:36.576Z,3.20
2023-03-29T13:28:24.650Z,6.97
2023-03-29T13:31:19.376Z,6.50
2023-03-29T13:34:33.894Z,4.87
2023-03-29T13:37:36.806Z,6.77
2023-03-29T13:40:25.383Z,8.53
2023-03-29T13:43:23.640Z,9.23
2023-03-29T13:46:23.695Z,8.30
2023-03-29T13:49:11.711Z,7.17
2023-03-29T13:51:48.320Z,8.37
2023-03-29T13:54:43.212Z,6.87
2023-03-29T13:57:57.240Z,8.93
2023-03-29T14:00:31.723Z,6.43
2023-03-29T14:03:02.147Z,11.53
2023-03-29T14:05:38.732Z,5.77
2023-03-29T14:08:22.334Z,5.10
2023-03-29T14:10:50.200Z,7.83
2023-03-29T14:13:19.595Z,4.73
2023-03-29T14:16:02.981Z,9.00
2023-03-29T14:18:36.841Z,10.10
2023-03-29T14:21:04.935Z,8.60
2023-03-29T14:23:33.793Z,7.37
2023-03-29T14:26:17.835Z,10.43
2023-03-29T14:28:59.464Z,9.37
2023-03-29T14:31:35.188Z,8.13
2023-03-29T14:34:04.734Z,8.57
2023-03-29T14:36:33.599Z,3.83
2023-03-29T14:39:08.234Z,13.30
2023-03-29T14:41:37.559Z,7.87
2023-03-29T14:44:08.604Z,14.03
2023-03-29T14:46:36.632Z,9.97
2023-03-29T14:49:05.139Z,15.60
2023-03-29T14:51:32.583Z,11.20
2023-03-29T14:54:02.253Z,9.20
2023-03-29T14:56:32.666Z,12.30
2023-03-29T14:59:01.679Z,9.30
2023-03-29T15:01:28.873Z,8.43
2023-03-29T15:04:10.429Z,8.07
2023-03-29T15:06:41.023Z,10.00
2023-03-29T15:09:17.077Z,10.73
2023-03-29T15:11:55.237Z,11.20
2023-03-29T15:14:24.853Z,20.00
2023-03-29T15:16:56.670Z,7.97
2023-03-29T15:19:26.277Z,11.33
2023-03-29T15:21:53.707Z,13.67
2023-03-29T15:24:32.067Z,6.27
2023-03-29T15:27:16.361Z,8.20
2023-03-29T15:29:46.944Z,10.13
2023-03-29T15:32:24.815Z,9.00
2023-03-29T15:35:08.067Z,18.23
2023-03-29T15:37:36.006Z,10.97
2023-03-29T15:40:09.888Z,6.87
2023-03-29T15:42:37.181Z,7.47
2023-03-29T15:45:07.524Z,16.37
2023-03-29T15:47:34.764Z,8.50
2023-03-29T15:50:02.137Z,11.93
2023-03-29T15:52:29.291Z,10.97
2023-03-29T15:54:56.552Z,9.73
2023-03-29T15:57:23.884Z,8.60
2023-03-29T15:59:51.292Z,9.13
2023-03-29T16:02:23.211Z,9.30
2023-03-29T16:04:51.061Z,10.43
2023-03-29T16:07:19.861Z,10.83
2023-03-29T16:09:47.419Z,7.37
2023-03-29T16:12:16.455Z,9.30
2023-03-29T16:14:55.694Z,15.17
2023-03-29T16:17:22.826Z,12.33
2023-03-29T16:19:50.120Z,9.73
2023-03-29T16:22:17.320Z,18.27
2023-03-29T16:24:44.360Z,8.57
2023-03-29T16:27:11.414Z,13.50
2023-03-29T16:29:38.488Z,9.63
2023-03-29T16:32:06.909Z,7.50
2023-03-29T16:34:36.123Z,7.67
2023-03-29T16:37:03.742Z,12.80
2023-03-29T16:39:30.890Z,10.70
2023-03-29T16:41:57.940Z,12.80
2023-03-29T16:44:27.688Z,16.03
2023-03-29T16:46:57.494Z,11.87
2023-03-29T16:49:24.826Z,10.27
2023-03-29T16:51:52.196Z,17.47
2023-03-29T16:54:19.359Z,12.73
2023-03-29T16:56:47.057Z,12.00
2023-03-29T16:59:14.518Z,18.40
2023-03-29T17:01:41.759Z,11.43
2023-03-29T17:04:09.353Z,11.23
2023-03-29T17:06:37.045Z,11.50
2023-03-29T17:09:05.198Z,10.87
2023-03-29T17:11:32.582Z,12.47
2023-03-29T17:14:00.247Z,10.57
2023-03-29T17:16:29.210Z,9.60
2023-03-29T17:19:00.412Z,11.83
2023-03-29T17:21:29.384Z,16.90
2023-03-29T17:23:56.582Z,9.20
2023-03-29T17:26:23.866Z,21.47
2023-03-29T17:28:51.065Z,9.70
2023-03-29T17:31:19.477Z,14.00
2023-03-29T17:33:47.573Z,13.53
2023-03-29T17:36:14.898Z,10.20
2023-03-29T17:38:42.981Z,13.37
2023-03-29T17:41:11.182Z,17.00
2023-03-29T17:43:38.263Z,8.33
2023-03-29T17:46:06.166Z,19.20
2023-03-29T17:48:33.517Z,16.03
2023-03-29T17:51:00.950Z,11.63
2023-03-29T17:53:28.060Z,10.60
2023-03-29T17:55:55.577Z,13.90
2023-03-29T17:58:22.622Z,12.90
2023-03-29T18:00:50.113Z,9.67
2023-03-29T18:03:17.366Z,18.93
2023-03-29T18:05:44.509Z,20.23
2023-03-29T18:08:13.612Z,16.07
2023-03-29T18:10:41.064Z,14.17
2023-03-29T18:13:11.380Z,14.20
2023-03-29T18:15:38.549Z,26.13
2023-03-29T18:18:05.729Z,17.40
2023-03-29T18:20:32.901Z,10.40
2023-03-29T18:22:59.996Z,15.10
2023-03-29T18:25:27.230Z,13.53
2023-03-29T18:27:54.319Z,18.17
2023-03-29T18:30:21.670Z,17.43
2023-03-29T18:32:48.795Z,16.53
2023-03-29T18:35:16.017Z,14.10
2023-03-29T18:37:43.121Z,10.57
2023-03-29T18:40:10.570Z,16.37
2023-03-29T18:42:37.752Z,14.67
2023-03-29T18:45:05.753Z,13.83
2023-03-29T18:47:33.266Z,9.83
2023-03-29T18:50:01.143Z,14.53
2023-03-29T18:52:28.305Z,11.47
2023-03-29T18:54:55.495Z,13.87
2023-03-29T18:57:22.633Z,13.87
2023-03-29T18:59:49.790Z,13.00
2023-03-29T19:02:17.439Z,15.20
2023-03-29T19:04:44.547Z,16.37
2023-03-29T19:07:11.788Z,14.17
2023-03-29T19:09:38.894Z,16.97
2023-03-29T19:12:06.653Z,18.47
2023-03-29T19:14:33.930Z,14.23
2023-03-29T19:17:01.068Z,11.70
2023-03-29T19:19:28.161Z,14.17
2023-03-29T19:21:57.713Z,13.43
2023-03-29T19:24:27.062Z,10.90
2023-03-29T19:26:54.319Z,18.27
2023-03-29T19:29:21.738Z,13.23
2023-03-29T19:31:51.044Z,18.47
2023-03-29T19:34:21.200Z,10.43
2023-03-29T19:36:48.434Z,12.40
2023-03-29T19:39:15.952Z,14.57
2023-03-29T19:41:43.129Z,14.43
2023-03-29T19:44:10.432Z,12.63
2023-03-29T19:46:37.849Z,10.10
2023-03-29T19:49:05.852Z,11.40
2023-03-29T19:51:33.024Z,9.07
2023-03-29T19:54:00.725Z,16.63
2023-03-29T19:56:28.049Z,21.00
2023-03-29T19:58:55.846Z,16.30
2023-03-29T20:01:23.050Z,17.83
2023-03-29T20:03:50.765Z,15.43
2023-03-29T20:06:19.495Z,12.17
2023-03-29T20:08:47.250Z,14.07
2023-03-29T20:11:15.454Z,14.13
2023-03-29T20:13:44.341Z,15.20
2023-03-29T20:16:14.041Z,16.17
2023-03-29T20:18:41.281Z,15.33
2023-03-29T20:21:09.347Z,17.43
2023-03-29T20:23:36.743Z,18.70
2023-03-29T20:26:04.012Z,15.20
2023-03-29T20:28:31.684Z,16.37
2023-03-29T20:31:06.426Z,16.50
2023-03-29T20:33:33.858Z,18.13
2023-03-29T20:36:01.093Z,17.20
2023-03-29T20:38:28.539Z,19.17
2023-03-29T20:40:55.899Z,16.83
2023-03-29T20:43:23.319Z,15.53
2023-03-29T20:45:53.825Z,12.63
2023-03-29T20:48:30.301Z,15.47
2023-03-29T20:50:57.834Z,11.30
2023-03-29T20:53:25.920Z,17.67
2023-03-29T20:55:53.097Z,13.23
2023-03-29T20:58:20.202Z,15.70
2023-03-29T21:00:48.497Z,14.40
2023-03-29T21:03:15.854Z,16.20
2023-03-29T21:05:43.580Z,13.83
2023-03-29T21:08:10.889Z,17.97
2023-03-29T21:10:37.996Z,21.60
2023-03-29T21:13:05.122Z,15.57
2023-03-29T21:15:33.247Z,9.33
2023-03-29T21:18:00.587Z,13.13
2023-03-29T21:20:27.975Z,10.10
2023-03-29T21:22:55.121Z,15.77
2023-03-29T21:25:22.431Z,18.77
2023-03-29T21:27:49.569Z,12.60
2023-03-29T21:30:17.166Z,16.90
2023-03-29T21:32:44.249Z,21.53
2023-03-29T21:35:11.668Z,16.83
2023-03-29T21:37:38.966Z,16.90
2023-03-29T21:40:08.626Z,12.10
2023-03-29T21:42:35.811Z,21.50
2023-03-29T21:45:03.280Z,21.17
2023-03-29T21:47:31.142Z,13.33
2023-03-29T21:49:58.283Z,15.53
2023-03-29T21:52:25.569Z,12.57
2023-03-29T21:54:52.740Z,14.27
2023-03-29T21:57:19.920Z,16.77
2023-03-29T21:59:47.075Z,12.53
2023-03-29T22:02:14.222Z,16.27
2023-03-29T22:04:41.511Z,16.27
2023-03-29T22:07:10.697Z,14.50
2023-03-29T22:09:37.966Z,18.50
2023-03-29T22:12:05.254Z,15.23
2023-03-29T22:14:35.334Z,13.77
2023-03-29T22:17:06.304Z,20.80
2023-03-29T22:19:39.704Z,21.80
2023-03-29T22:22:13.760Z,23.77
2023-03-29T22:24:42.098Z,15.37
2023-03-29T22:27:10.597Z,16.10
2023-03-29T22:29:37.785Z,17.83
2023-03-29T22:32:05.156Z,15.67
2023-03-29T22:34:32.566Z,8.97
2023-03-29T22:36:59.673Z,13.17
2023-03-29T22:39:26.956Z,16.93
2023-03-29T22:41:54.328Z,22.93
2023-03-29T22:44:21.438Z,13.73
2023-03-29T22:46:48.463Z,15.27
2023-03-29T22:49:15.570Z,10.87
2023-03-29T22:51:42.665Z,17.30
2023-03-29T22:54:09.850Z,16.80
2023-03-29T22:56:36.882Z,15.53
2023-03-29T22:59:04.159Z,16.37
2023-03-29T23:01:31.306Z,19.83
2023-03-29T23:03:58.521Z,17.33
2023-03-29T23:06:25.880Z,25.37
2023-03-29T23:08:52.957Z,13.20
2023-03-29T23:11:20.007Z,19.13
2023-03-29T23:13:49.054Z,12.80
2023-03-29T23:16:16.525Z,16.73
2023-03-29T23:18:43.943Z,14.83
2023-03-29T23:21:11.056Z,16.47
2023-03-29T23:23:38.428Z,18.67
2023-03-29T23:26:06.227Z,14.33
2023-03-29T23:28:34.588Z,22.90
2023-03-29T23:31:13.236Z,13.00
2023-03-29T23:33:42.859Z,14.83
2023-03-29T23:36:15.655Z,22.33
2023-03-29T23:38:45.317Z,21.20
2023-03-29T23:41:13.030Z,16.13
2023-03-29T23:43:42.811Z,17.33
2023-03-29T23:46:12.503Z,20.80
2023-03-29T23:48:39.674Z,30.00
2023-03-29T23:51:08.232Z,25.03
2023-03-29T23:53:35.482Z,20.73
2023-03-29T23:56:05.125Z,20.27
2023-03-29T23:58:35.020Z,16.90
